createdAt,value
2022-12-18T00:00:36.075Z,19.02
2022-12-18T00:03:02.799Z,19.13
2022-12-18T00:05:29.464Z,20.27
2022-12-18T00:07:56.110Z,23.45
2022-12-18T00:10:22.776Z,22.17
2022-12-18T00:12:49.554Z,22.55
2022-12-18T00:15:16.153Z,19.73
2022-12-18T00:17:42.942Z,26.83
2022-12-18T00:20:09.577Z,24.48
2022-12-18T00:22:36.453Z,27.73
2022-12-18T00:25:03.057Z,16.45
2022-12-18T00:27:29.686Z,17.98
2022-12-18T00:29:56.321Z,25.15
2022-12-18T00:32:22.914Z,24.00
2022-12-18T00:34:49.607Z,20.45
2022-12-18T00:37:20.052Z,25.35
2022-12-18T00:39:47.137Z,26.73
2022-12-18T00:42:32.520Z,25.45
2022-12-18T00:44:59.159Z,26.73
2022-12-18T00:47:25.791Z,24.90
2022-12-18T00:49:52.901Z,22.85
2022-12-18T00:52:19.494Z,21.45
2022-12-18T00:54:46.147Z,19.42
2022-12-18T00:57:12.927Z,25.80
2022-12-18T00:59:39.798Z,23.13
2022-12-18T01:02:06.488Z,21.17
2022-12-18T01:04:33.152Z,23.02
2022-12-18T01:06:59.732Z,21.70
2022-12-18T01:09:26.450Z,17.40
2022-12-18T01:11:53.033Z,18.55
2022-12-18T01:14:19.800Z,29.85
2022-12-18T01:16:47.209Z,25.33
2022-12-18T01:19:13.853Z,25.65
2022-12-18T01:21:40.451Z,20.90
2022-12-18T01:24:07.222Z,22.25
2022-12-18T01:26:33.835Z,20.05
2022-12-18T01:29:00.441Z,28.02
2022-12-18T01:31:27.231Z,21.85
2022-12-18T01:33:53.894Z,19.60
2022-12-18T01:36:20.562Z,25.00
2022-12-18T01:38:47.736Z,23.92
2022-12-18T01:41:14.752Z,21.70
2022-12-18T01:43:41.591Z,26.83
2022-12-18T01:46:08.341Z,18.95
2022-12-18T01:48:34.981Z,24.13
2022-12-18T01:51:01.692Z,25.08
2022-12-18T01:53:28.394Z,23.30
2022-12-18T01:55:55.018Z,20.08
2022-12-18T01:58:21.629Z,21.73
2022-12-18T02:00:48.296Z,26.30
2022-12-18T02:03:15.292Z,18.45
2022-12-18T02:05:42.341Z,21.15
2022-12-18T02:08:08.979Z,19.27
2022-12-18T02:10:35.949Z,26.33
2022-12-18T02:13:02.615Z,20.60
2022-12-18T02:15:29.633Z,27.33
2022-12-18T02:17:56.325Z,19.83
2022-12-18T02:20:23.089Z,18.17
2022-12-18T02:22:49.774Z,19.25
2022-12-18T02:25:16.403Z,21.60
2022-12-18T02:27:43.239Z,23.30
2022-12-18T02:30:09.985Z,20.65
2022-12-18T02:32:36.643Z,22.50
2022-12-18T02:35:03.338Z,20.88
2022-12-18T02:37:29.914Z,18.75
2022-12-18T02:39:56.506Z,19.75
2022-12-18T02:42:23.215Z,15.23
2022-12-18T02:44:50.193Z,17.23
2022-12-18T02:47:16.773Z,21.83
2022-12-18T02:49:43.347Z,18.38
2022-12-18T02:52:09.943Z,19.88
2022-12-18T02:54:36.595Z,18.30
2022-12-18T02:57:03.477Z,24.77
2022-12-18T02:59:30.180Z,20.73
2022-12-18T03:01:56.837Z,17.92
2022-12-18T03:04:23.622Z,20.20
2022-12-18T03:06:50.194Z,16.95
2022-12-18T03:09:16.857Z,19.58
2022-12-18T03:12:02.226Z,23.65
2022-12-18T03:14:29.191Z,19.58
2022-12-18T03:16:57.051Z,16.75
2022-12-18T03:19:23.748Z,20.90
2022-12-18T03:21:50.379Z,18.70
2022-12-18T03:24:16.989Z,17.67
2022-12-18T03:26:43.592Z,15.48
2022-12-18T03:29:10.277Z,17.48
2022-12-18T03:31:36.878Z,16.92
2022-12-18T03:34:03.501Z,18.85
2022-12-18T03:36:33.175Z,14.50
2022-12-18T03:38:59.749Z,13.15
2022-12-18T03:41:26.377Z,15.93
2022-12-18T03:43:53.221Z,16.60
2022-12-18T03:46:20.320Z,18.90
2022-12-18T03:48:47.136Z,21.50
2022-12-18T03:51:13.726Z,17.23
2022-12-18T03:53:40.753Z,19.08
2022-12-18T03:56:07.611Z,14.40
2022-12-18T03:58:34.266Z,16.85
2022-12-18T04:01:01.149Z,17.77
2022-12-18T04:03:28.221Z,14.43
2022-12-18T04:05:54.984Z,19.77
2022-12-18T04:08:21.663Z,12.85
2022-12-18T04:10:48.276Z,14.88
2022-12-18T04:13:15.037Z,23.23
2022-12-18T04:15:42.064Z,15.82
2022-12-18T04:18:08.663Z,13.20
2022-12-18T04:20:35.330Z,14.73
2022-12-18T04:23:02.084Z,16.13
2022-12-18T04:25:28.802Z,15.52
2022-12-18T04:27:55.848Z,15.65
2022-12-18T04:30:22.417Z,14.70
2022-12-18T04:32:52.146Z,18.88
2022-12-18T04:35:19.052Z,15.05
2022-12-18T04:37:45.667Z,21.38
2022-12-18T04:40:12.338Z,17.20
2022-12-18T04:42:38.962Z,20.83
2022-12-18T04:45:05.969Z,17.15
2022-12-18T04:47:33.088Z,21.92
2022-12-18T04:49:59.854Z,16.50
2022-12-18T04:52:26.442Z,18.02
2022-12-18T04:54:53.041Z,20.08
2022-12-18T04:57:19.644Z,19.88
2022-12-18T04:59:46.232Z,18.73
2022-12-18T05:02:12.943Z,16.95
2022-12-18T05:04:39.998Z,22.80
2022-12-18T05:07:06.577Z,22.38
2022-12-18T05:09:33.171Z,19.35
2022-12-18T05:12:00.360Z,20.45
2022-12-18T05:14:28.558Z,19.00
2022-12-18T05:17:00.545Z,22.88
2022-12-18T05:19:27.752Z,19.45
2022-12-18T05:21:54.464Z,18.05
2022-12-18T05:24:21.142Z,21.38
2022-12-18T05:26:48.129Z,17.90
2022-12-18T05:29:14.731Z,20.95
2022-12-18T05:31:41.402Z,20.48
2022-12-18T05:34:09.950Z,22.33
2022-12-18T05:36:38.012Z,19.98
2022-12-18T05:39:04.854Z,23.77
2022-12-18T05:41:32.721Z,18.95
2022-12-18T05:43:59.332Z,22.52
2022-12-18T05:46:25.925Z,17.45
2022-12-18T05:48:52.675Z,19.63
2022-12-18T05:51:19.495Z,20.58
2022-12-18T05:53:46.056Z,20.13
2022-12-18T05:56:12.689Z,17.95
2022-12-18T05:58:39.673Z,21.67
2022-12-18T06:01:06.518Z,21.27
2022-12-18T06:03:34.009Z,24.45
2022-12-18T06:06:00.776Z,18.17
2022-12-18T06:08:27.391Z,21.65
2022-12-18T06:10:54.050Z,16.58
2022-12-18T06:13:20.690Z,20.25
2022-12-18T06:15:49.848Z,19.90
2022-12-18T06:18:16.702Z,21.52
2022-12-18T06:20:43.925Z,17.27
2022-12-18T06:23:10.643Z,19.10
2022-12-18T06:25:37.225Z,17.15
2022-12-18T06:28:03.804Z,19.10
2022-12-18T06:30:32.013Z,16.08
2022-12-18T06:32:58.732Z,20.20
2022-12-18T06:35:25.316Z,15.35
2022-12-18T06:37:51.959Z,18.20
2022-12-18T06:40:19.023Z,14.63
2022-12-18T06:42:45.676Z,17.85
2022-12-18T06:45:12.687Z,18.60
2022-12-18T06:47:39.328Z,17.60
2022-12-18T06:50:06.758Z,17.35
2022-12-18T06:52:33.398Z,16.92
2022-12-18T06:55:00.226Z,17.30
2022-12-18T06:57:26.950Z,19.08
2022-12-18T06:59:53.865Z,19.38
2022-12-18T07:02:20.637Z,16.50
2022-12-18T07:04:47.367Z,15.30
2022-12-18T07:07:14.015Z,19.55
2022-12-18T07:09:40.635Z,18.25
2022-12-18T07:12:08.856Z,18.25
2022-12-18T07:14:35.438Z,20.98
2022-12-18T07:17:02.129Z,19.38
2022-12-18T07:19:28.972Z,17.88
2022-12-18T07:21:56.620Z,16.73
2022-12-18T07:24:23.315Z,14.27
2022-12-18T07:26:49.981Z,18.27
2022-12-18T07:29:16.563Z,15.57
2022-12-18T07:31:43.544Z,20.98
2022-12-18T07:34:10.519Z,17.40
2022-12-18T07:36:37.163Z,17.70
2022-12-18T07:39:03.776Z,16.63
2022-12-18T07:41:30.618Z,16.35
2022-12-18T07:43:57.333Z,16.33
2022-12-18T07:46:24.016Z,14.40
2022-12-18T07:48:50.683Z,13.95
2022-12-18T07:51:17.353Z,15.63
2022-12-18T07:53:45.413Z,16.55
2022-12-18T07:56:27.024Z,15.52
2022-12-18T07:58:54.805Z,15.75
2022-12-18T08:01:21.689Z,15.65
2022-12-18T08:03:48.758Z,19.70
2022-12-18T08:06:17.659Z,18.08
2022-12-18T08:08:44.285Z,16.13
2022-12-18T08:11:10.914Z,20.77
2022-12-18T08:13:38.040Z,19.75
2022-12-18T08:16:05.051Z,16.67
2022-12-18T08:18:34.657Z,17.15
2022-12-18T08:21:01.520Z,17.30
2022-12-18T08:23:28.900Z,15.88
2022-12-18T08:25:55.591Z,19.67
2022-12-18T08:28:22.780Z,20.65
2022-12-18T08:30:49.408Z,19.83
2022-12-18T08:33:16.570Z,18.48
2022-12-18T08:35:46.051Z,20.48
2022-12-18T08:38:12.873Z,17.88
2022-12-18T08:40:39.513Z,17.60
2022-12-18T08:43:24.911Z,19.33
2022-12-18T08:45:51.726Z,22.15
2022-12-18T08:48:22.157Z,19.23
2022-12-18T08:50:49.341Z,15.82
2022-12-18T08:53:16.597Z,16.88
2022-12-18T08:55:47.177Z,19.30
2022-12-18T08:58:16.839Z,16.45
2022-12-18T09:00:43.787Z,20.55
2022-12-18T09:03:10.398Z,16.83
2022-12-18T09:05:37.173Z,17.17
2022-12-18T09:08:03.981Z,18.02
2022-12-18T09:10:31.027Z,17.88
2022-12-18T09:12:57.641Z,17.98
2022-12-18T09:15:24.421Z,18.38
2022-12-18T09:17:51.684Z,18.23
2022-12-18T09:20:18.291Z,17.98
2022-12-18T09:22:45.356Z,18.63
2022-12-18T09:25:12.157Z,18.63
2022-12-18T09:27:39.434Z,18.92
2022-12-18T09:30:06.376Z,17.98
2022-12-18T09:32:32.989Z,19.33
2022-12-18T09:35:00.208Z,17.95
2022-12-18T09:37:27.028Z,16.92
2022-12-18T09:39:53.650Z,18.33
2022-12-18T09:42:20.257Z,16.40
2022-12-18T09:44:48.289Z,16.65
2022-12-18T09:47:15.604Z,18.63
2022-12-18T09:49:42.403Z,18.65
2022-12-18T09:52:09.172Z,18.05
2022-12-18T09:54:39.538Z,16.63
2022-12-18T09:57:06.586Z,17.08
2022-12-18T09:59:33.871Z,18.70
2022-12-18T10:02:01.191Z,19.25
2022-12-18T10:04:28.580Z,18.95
2022-12-18T10:06:55.634Z,19.77
2022-12-18T10:09:22.815Z,15.20
2022-12-18T10:11:49.896Z,15.13
2022-12-18T10:14:16.720Z,19.77
2022-12-18T10:16:43.805Z,16.33
2022-12-18T10:19:10.934Z,17.40
2022-12-18T10:21:37.938Z,15.45
2022-12-18T10:24:05.112Z,13.85
2022-12-18T10:26:32.281Z,16.20
2022-12-18T10:29:03.795Z,17.67
2022-12-18T10:31:32.357Z,19.40
2022-12-18T10:33:59.118Z,13.75
2022-12-18T10:36:25.782Z,12.23
2022-12-18T10:38:52.471Z,13.82
2022-12-18T10:41:19.642Z,15.52
2022-12-18T10:43:48.406Z,16.15
2022-12-18T10:46:15.862Z,14.75
2022-12-18T10:48:43.028Z,12.90
2022-12-18T10:51:12.875Z,16.13
2022-12-18T10:53:40.099Z,13.82
2022-12-18T10:56:06.852Z,16.38
2022-12-18T10:58:33.596Z,16.83
2022-12-18T11:01:00.222Z,18.27
2022-12-18T11:03:26.845Z,17.35
2022-12-18T11:05:53.472Z,15.82
2022-12-18T11:08:20.086Z,15.18
2022-12-18T11:10:46.678Z,16.75
2022-12-18T11:13:13.367Z,18.70
2022-12-18T11:15:40.177Z,15.80
2022-12-18T11:18:06.839Z,15.20
2022-12-18T11:20:33.408Z,15.57
2022-12-18T11:23:00.078Z,17.48
2022-12-18T11:25:32.436Z,17.95
2022-12-18T11:28:00.245Z,19.17
2022-12-18T11:30:27.012Z,16.23
2022-12-18T11:32:53.766Z,15.45
2022-12-18T11:35:20.365Z,19.27
2022-12-18T11:37:47.062Z,16.95
2022-12-18T11:40:13.715Z,16.70
2022-12-18T11:42:40.308Z,18.67
2022-12-18T11:45:07.639Z,18.02
2022-12-18T11:47:34.291Z,15.80
2022-12-18T11:50:00.888Z,16.25
2022-12-18T11:52:27.987Z,16.90
2022-12-18T11:54:54.649Z,19.15
2022-12-18T11:57:21.343Z,18.55
2022-12-18T11:59:47.981Z,18.83
2022-12-18T12:02:14.795Z,22.88
2022-12-18T12:04:41.631Z,19.00
2022-12-18T12:07:08.267Z,19.10
2022-12-18T12:09:34.886Z,15.75
2022-12-18T12:12:01.503Z,21.42
2022-12-18T12:14:28.111Z,20.60
2022-12-18T12:16:54.849Z,17.88
2022-12-18T12:19:21.514Z,20.08
2022-12-18T12:21:48.162Z,18.35
2022-12-18T12:24:14.821Z,17.67
2022-12-18T12:26:41.480Z,17.65
2022-12-18T12:29:10.648Z,19.42
2022-12-18T12:31:37.769Z,16.60
2022-12-18T12:34:05.070Z,19.13
2022-12-18T12:36:33.576Z,20.08
2022-12-18T12:39:01.246Z,18.88
2022-12-18T12:41:47.147Z,20.90
2022-12-18T12:44:14.550Z,18.67
2022-12-18T12:46:41.785Z,17.75
2022-12-18T12:49:10.761Z,16.58
2022-12-18T12:51:38.036Z,16.08
2022-12-18T12:54:05.674Z,15.25
2022-12-18T12:56:33.795Z,16.42
2022-12-18T12:59:00.687Z,16.27
2022-12-18T13:01:28.163Z,16.35
2022-12-18T13:03:56.080Z,17.73
2022-12-18T13:06:23.495Z,19.85
2022-12-18T13:08:50.990Z,17.15
2022-12-18T13:11:39.930Z,20.45
2022-12-18T13:14:07.362Z,20.02
2022-12-18T13:16:34.599Z,15.88
2022-12-18T13:19:02.069Z,15.32
2022-12-18T13:21:29.416Z,16.10
2022-12-18T13:24:00.075Z,14.25
2022-12-18T13:26:29.017Z,16.70
2022-12-18T13:28:56.664Z,16.17
2022-12-18T13:31:24.389Z,18.48
2022-12-18T13:34:24.613Z,14.50
2022-12-18T13:36:39.167Z,13.98
2022-12-18T13:39:06.322Z,15.27
2022-12-18T13:41:33.985Z,13.80
2022-12-18T13:44:01.956Z,17.30
2022-12-18T13:46:29.150Z,14.73
2022-12-18T13:48:56.353Z,15.55
2022-12-18T13:51:23.682Z,14.07
2022-12-18T13:53:51.101Z,15.13
2022-12-18T13:56:21.605Z,13.45
2022-12-18T13:58:50.106Z,14.60
2022-12-18T14:01:17.319Z,11.07
2022-12-18T14:03:44.932Z,14.45
2022-12-18T14:06:13.980Z,11.25
2022-12-18T14:08:42.624Z,12.60
2022-12-18T14:11:10.869Z,11.95
2022-12-18T14:13:41.486Z,12.35
2022-12-18T14:16:10.069Z,13.82
2022-12-18T14:18:38.414Z,10.18
2022-12-18T14:21:06.092Z,9.60
2022-12-18T14:23:33.460Z,14.63
2022-12-18T14:26:05.500Z,12.18
2022-12-18T14:28:36.341Z,11.05
2022-12-18T14:31:03.696Z,11.88
2022-12-18T14:33:31.177Z,13.02
2022-12-18T14:36:01.888Z,10.13
2022-12-18T14:38:31.598Z,10.90
2022-12-18T14:41:06.025Z,11.35
2022-12-18T14:43:33.301Z,13.23
2022-12-18T14:46:00.371Z,11.05
2022-12-18T14:48:27.894Z,10.45
2022-12-18T14:50:55.292Z,12.80
2022-12-18T14:53:22.660Z,13.15
2022-12-18T14:55:49.811Z,13.68
2022-12-18T14:58:16.929Z,12.32
2022-12-18T15:00:44.269Z,13.35
2022-12-18T15:03:11.899Z,10.75
2022-12-18T15:05:39.097Z,12.73
2022-12-18T15:08:06.339Z,10.02
2022-12-18T15:10:33.566Z,14.52
2022-12-18T15:13:01.888Z,10.88
2022-12-18T15:15:29.023Z,10.45
2022-12-18T15:17:56.253Z,9.68
2022-12-18T15:20:23.186Z,11.60
2022-12-18T15:22:50.261Z,8.52
2022-12-18T15:25:17.317Z,12.23
2022-12-18T15:27:44.380Z,10.25
2022-12-18T15:30:11.855Z,10.85
2022-12-18T15:32:38.817Z,10.93
2022-12-18T15:35:05.986Z,10.15
2022-12-18T15:37:33.297Z,9.55
2022-12-18T15:40:00.256Z,11.07
2022-12-18T15:42:45.775Z,9.10
2022-12-18T15:45:12.734Z,10.18
2022-12-18T15:47:40.028Z,8.15
2022-12-18T15:50:07.372Z,8.95
2022-12-18T15:52:34.719Z,8.57
2022-12-18T15:55:20.480Z,8.30
2022-12-18T15:57:47.757Z,9.38
2022-12-18T16:00:15.017Z,6.38
2022-12-18T16:02:42.429Z,12.18
2022-12-18T16:05:10.179Z,8.15
2022-12-18T16:07:37.326Z,9.32
2022-12-18T16:10:04.467Z,10.05
2022-12-18T16:12:34.913Z,9.05
2022-12-18T16:15:03.262Z,8.18
2022-12-18T16:17:30.247Z,10.18
2022-12-18T16:19:57.513Z,7.05
2022-12-18T16:22:24.712Z,6.97
2022-12-18T16:24:51.809Z,8.48
2022-12-18T16:27:19.035Z,6.22
2022-12-18T16:29:46.184Z,6.65
2022-12-18T16:32:13.200Z,4.78
2022-12-18T16:34:40.303Z,6.45
2022-12-18T16:37:07.169Z,4.60
2022-12-18T16:39:35.564Z,4.78
2022-12-18T16:42:05.302Z,3.78
2022-12-18T16:44:32.867Z,3.78
2022-12-18T16:47:03.407Z,4.38
2022-12-18T16:49:30.601Z,4.53
2022-12-18T16:51:57.891Z,4.57
2022-12-18T16:54:25.364Z,3.85
2022-12-18T16:56:52.576Z,4.35
2022-12-18T16:59:19.912Z,3.90
2022-12-18T17:01:47.403Z,3.72
2022-12-18T17:04:14.917Z,5.88
2022-12-18T17:06:42.121Z,3.88
2022-12-18T17:09:09.701Z,3.88
2022-12-18T17:11:36.355Z,5.03
2022-12-18T17:14:03.535Z,4.38
2022-12-18T17:16:30.357Z,6.30
2022-12-18T17:18:58.723Z,5.38
2022-12-18T17:21:25.293Z,5.05
2022-12-18T17:23:55.080Z,5.50
2022-12-18T17:26:21.954Z,4.93
2022-12-18T17:28:48.747Z,5.88
2022-12-18T17:31:15.688Z,3.92
2022-12-18T17:33:43.198Z,6.35
2022-12-18T17:36:10.687Z,5.65
2022-12-18T17:38:37.309Z,5.03
2022-12-18T17:41:04.008Z,4.45
2022-12-18T17:43:30.708Z,5.00
2022-12-18T17:45:57.445Z,4.50
2022-12-18T17:48:24.800Z,4.10
2022-12-18T17:50:51.647Z,5.35
2022-12-18T17:53:18.412Z,5.30
2022-12-18T17:55:45.003Z,4.45
2022-12-18T17:58:11.925Z,4.50
2022-12-18T18:00:38.889Z,4.00
2022-12-18T18:03:05.623Z,6.22
2022-12-18T18:05:32.337Z,5.28
2022-12-18T18:08:02.265Z,4.15
2022-12-18T18:10:28.968Z,4.70
2022-12-18T18:13:16.554Z,5.10
2022-12-18T18:15:43.228Z,4.85
2022-12-18T18:18:09.867Z,4.70
2022-12-18T18:20:37.958Z,4.80
2022-12-18T18:23:04.624Z,5.15
2022-12-18T18:25:31.220Z,4.82
2022-12-18T18:27:58.207Z,4.05
2022-12-18T18:30:24.885Z,5.53
2022-12-18T18:32:51.509Z,4.72
2022-12-18T18:35:52.236Z,4.18
2022-12-18T18:38:06.327Z,4.18
2022-12-18T18:40:33.023Z,4.57
2022-12-18T18:42:59.650Z,4.57
2022-12-18T18:45:26.320Z,7.15
2022-12-18T18:47:53.016Z,5.20
2022-12-18T18:50:19.614Z,4.90
2022-12-18T18:52:46.301Z,5.95
2022-12-18T18:55:22.315Z,6.63
2022-12-18T18:57:52.390Z,5.63
2022-12-18T19:00:22.404Z,4.93
2022-12-18T19:02:49.358Z,6.00
2022-12-18T19:05:16.211Z,4.80
2022-12-18T19:07:43.100Z,4.78
2022-12-18T19:10:09.967Z,4.35
2022-12-18T19:12:55.598Z,4.97
2022-12-18T19:15:22.376Z,4.90
2022-12-18T19:17:49.376Z,4.03
2022-12-18T19:20:16.064Z,4.78
2022-12-18T19:22:42.798Z,4.82
2022-12-18T19:25:10.028Z,6.30
2022-12-18T19:27:38.982Z,5.93
2022-12-18T19:30:05.710Z,5.15
2022-12-18T19:32:32.642Z,6.63
2022-12-18T19:34:59.477Z,4.47
2022-12-18T19:37:26.172Z,4.93
2022-12-18T19:39:53.007Z,5.35
2022-12-18T19:42:25.480Z,5.35
2022-12-18T19:44:54.823Z,5.13
2022-12-18T19:47:21.400Z,6.45
2022-12-18T19:49:48.090Z,5.93
2022-12-18T19:52:17.814Z,6.45
2022-12-18T19:54:44.492Z,6.45
2022-12-18T19:57:12.520Z,4.68
2022-12-18T19:59:39.180Z,5.13
2022-12-18T20:02:07.173Z,5.63
2022-12-18T20:04:34.163Z,5.78
2022-12-18T20:07:00.825Z,5.00
2022-12-18T20:09:27.611Z,4.93
2022-12-18T20:11:55.411Z,4.97
2022-12-18T20:14:22.640Z,4.35
2022-12-18T20:16:50.082Z,5.13
2022-12-18T20:19:16.980Z,5.05
2022-12-18T20:21:44.086Z,4.63
2022-12-18T20:24:10.788Z,5.50
2022-12-18T20:26:37.479Z,5.43
2022-12-18T20:29:04.256Z,6.05
2022-12-18T20:31:31.016Z,4.65
2022-12-18T20:33:59.921Z,5.70
2022-12-18T20:36:28.420Z,5.47
2022-12-18T20:38:58.081Z,6.00
2022-12-18T20:41:26.242Z,5.63
2022-12-18T20:43:57.807Z,6.07
2022-12-18T20:46:24.821Z,4.47
2022-12-18T20:48:51.551Z,4.38
2022-12-18T20:51:18.260Z,4.80
2022-12-18T20:53:45.468Z,5.00
2022-12-18T20:56:12.386Z,5.30
2022-12-18T20:58:39.040Z,4.43
2022-12-18T21:01:06.386Z,4.22
2022-12-18T21:03:33.153Z,4.43
2022-12-18T21:06:00.034Z,4.25
2022-12-18T21:08:26.617Z,4.85
2022-12-18T21:10:53.413Z,4.05
2022-12-18T21:13:22.763Z,4.90
2022-12-18T21:15:49.461Z,3.08
2022-12-18T21:18:16.176Z,3.05
2022-12-18T21:20:42.835Z,2.75
2022-12-18T21:23:16.200Z,3.80
2022-12-18T21:25:43.335Z,3.85
2022-12-18T21:28:09.990Z,3.60
2022-12-18T21:30:36.674Z,3.50
2022-12-18T21:33:03.408Z,3.05
2022-12-18T21:35:32.069Z,3.45
2022-12-18T21:37:58.886Z,4.15
2022-12-18T21:40:25.628Z,6.05
2022-12-18T21:43:14.933Z,6.07
2022-12-18T21:45:44.590Z,7.30
2022-12-18T21:48:12.264Z,5.15
2022-12-18T21:50:38.904Z,4.97
2022-12-18T21:53:05.579Z,6.60
2022-12-18T21:55:32.258Z,3.45
2022-12-18T21:57:58.926Z,5.20
2022-12-18T22:00:25.525Z,5.10
2022-12-18T22:03:15.445Z,4.82
2022-12-18T22:05:38.795Z,3.83
2022-12-18T22:08:06.835Z,3.33
2022-12-18T22:10:34.155Z,3.10
2022-12-18T22:13:00.849Z,2.45
2022-12-18T22:15:27.559Z,2.13
2022-12-18T22:17:59.522Z,3.85
2022-12-18T22:20:26.751Z,2.70
2022-12-18T22:22:53.617Z,2.85
2022-12-18T22:25:20.212Z,3.42
2022-12-18T22:28:06.768Z,3.33
2022-12-18T22:30:33.402Z,3.25
2022-12-18T22:33:00.310Z,5.05
2022-12-18T22:35:26.921Z,5.05
2022-12-18T22:37:53.504Z,2.10
2022-12-18T22:40:24.670Z,2.25
2022-12-18T22:42:52.660Z,2.13
2022-12-18T22:45:19.364Z,2.45
2022-12-18T22:47:45.956Z,1.95
2022-12-18T22:50:12.566Z,2.45
2022-12-18T22:52:39.238Z,2.47
2022-12-18T22:55:06.215Z,4.65
2022-12-18T22:57:33.720Z,3.15
2022-12-18T23:00:01.361Z,2.42
2022-12-18T23:02:28.089Z,3.17
2022-12-18T23:04:54.868Z,3.55
2022-12-18T23:07:21.444Z,2.20
2022-12-18T23:09:49.388Z,2.85
2022-12-18T23:12:20.519Z,3.53
2022-12-18T23:14:47.398Z,2.83
2022-12-18T23:17:14.072Z,3.13
2022-12-18T23:19:45.488Z,5.00
2022-12-18T23:22:15.435Z,3.80
2022-12-18T23:24:42.141Z,3.78
2022-12-18T23:27:11.362Z,2.33
2022-12-18T23:29:38.217Z,2.05
2022-12-18T23:32:04.811Z,4.28
2022-12-18T23:34:31.472Z,2.63
2022-12-18T23:36:58.149Z,2.83
2022-12-18T23:39:29.705Z,3.35
2022-12-18T23:41:56.849Z,2.17
2022-12-18T23:44:23.481Z,2.33
2022-12-18T23:46:50.224Z,2.58
2022-12-18T23:49:16.923Z,3.60
2022-12-18T23:51:43.713Z,2.30
2022-12-18T23:54:10.301Z,2.22
2022-12-18T23:56:37.025Z,2.00
2022-12-18T23:59:03.628Z,1.63
